Time;durP1;ratioP1;P1;durP2;ratioP2;P2;SDS_P1;SDS_P2;PMS_P1;PMS_P2;Temp;Humidity;BMP_temperature;BMP_pressure;BME280_temperature;BME280_humidity;BME280_pressure;Samples;Min_cycle;Max_cycle;Signal;HPM_P1;HPM_P2
2022/05/06 00:00:26;;;;;;;5.97;4.20;;;;;;;-144.65;100.00;64500.88;5050891;28;20037;-74
2022/05/06 00:02:52;;;;;;;7.18;4.53;;;;;;;-144.65;100.00;64500.88;5058133;28;20516;-76
2022/05/06 00:05:17;;;;;;;11.02;4.95;;;;;;;-144.65;100.00;64500.88;5056398;28;20024;-74
2022/05/06 00:07:42;;;;;;;6.10;4.10;;;;;;;-144.65;100.00;64500.88;5054429;28;20422;-75
2022/05/06 00:10:09;;;;;;;8.85;4.40;;;;;;;-144.65;100.00;64500.88;5054197;28;20060;-75
2022/05/06 00:12:35;;;;;;;7.47;4.60;;;;;;;-144.65;100.00;64500.88;5053994;28;20052;-76
2022/05/06 00:15:01;;;;;;;10.45;4.65;;;;;;;-144.65;100.00;64500.88;5053897;28;20100;-75
2022/05/06 00:17:26;;;;;;;6.22;4.78;;;;;;;-144.65;100.00;64500.88;5054270;28;20029;-77
2022/05/06 00:19:52;;;;;;;7.35;4.43;;;;;;;-144.65;100.00;64500.88;5054155;28;20028;-74
2022/05/06 00:22:17;;;;;;;6.85;5.03;;;;;;;-144.65;100.00;64500.88;5053992;28;20021;-75
2022/05/06 00:24:43;;;;;;;8.10;5.13;;;;;;;-144.65;100.00;64500.88;5053295;28;20440;-75
2022/05/06 00:27:09;;;;;;;6.50;4.22;;;;;;;-144.65;100.00;64500.88;5054228;28;20071;-74
2022/05/06 00:29:34;;;;;;;5.50;4.30;;;;;;;-144.65;100.00;64500.88;5054029;28;20482;-75
2022/05/06 00:32:01;;;;;;;5.88;4.45;;;;;;;-144.65;100.00;64500.88;5054335;28;20394;-74
2022/05/06 00:34:27;;;;;;;6.22;4.35;;;;;;;-144.65;100.00;64500.88;5054321;28;20029;-75
2022/05/06 00:36:55;;;;;;;8.60;4.65;;;;;;;-144.65;100.00;64500.88;5054077;28;20032;-75
2022/05/06 00:39:20;;;;;;;6.88;4.50;;;;;;;-144.65;100.00;64500.88;5054124;28;20512;-74
2022/05/06 00:41:46;;;;;;;6.78;4.72;;;;;;;-144.65;100.00;64500.88;5054379;28;20052;-75
2022/05/06 00:44:11;;;;;;;8.70;5.05;;;;;;;-144.65;100.00;64500.88;5055774;28;20052;-76
2022/05/06 00:46:37;;;;;;;9.52;5.07;;;;;;;-144.65;100.00;64500.88;5059581;28;20112;-77
2022/05/06 00:49:06;;;;;;;7.88;4.65;;;;;;;-144.65;100.00;64500.88;5057017;28;20029;-74
2022/05/06 00:51:31;;;;;;;6.72;4.75;;;;;;;-144.65;100.00;64500.88;5053992;28;20057;-74
2022/05/06 00:53:57;;;;;;;6.35;5.10;;;;;;;-144.65;100.00;64500.88;5053984;28;20063;-75
2022/05/06 00:56:24;;;;;;;7.63;4.85;;;;;;;-144.65;100.00;64500.88;5053540;28;20032;-75
2022/05/06 00:58:51;;;;;;;9.13;4.78;;;;;;;-144.65;100.00;64500.88;5053730;28;20493;-74
2022/05/06 01:01:18;;;;;;;6.90;4.70;;;;;;;-144.65;100.00;64500.88;5053489;28;20115;-75
2022/05/06 01:03:43;;;;;;;8.07;5.70;;;;;;;-144.65;100.00;64500.88;5053540;28;20083;-75
2022/05/06 01:06:13;;;;;;;7.40;5.25;;;;;;;-144.65;100.00;64500.88;5053514;28;20374;-75
2022/05/06 01:08:39;;;;;;;6.68;4.75;;;;;;;-144.65;100.00;64500.88;5053910;28;20025;-75
2022/05/06 01:11:06;;;;;;;6.55;4.65;;;;;;;-144.65;100.00;64500.88;5053858;28;20539;-76
2022/05/06 01:13:37;;;;;;;7.20;5.28;;;;;;;-144.65;100.00;64500.88;5052561;28;20450;-75
2022/05/06 01:16:03;;;;;;;8.75;5.05;;;;;;;-144.65;100.00;64500.88;5053214;28;20559;-75
2022/05/06 01:18:28;;;;;;;7.82;5.45;;;;;;;-144.65;100.00;64500.88;5054288;28;20029;-75
2022/05/06 01:20:58;;;;;;;6.82;4.57;;;;;;;-144.65;100.00;64500.88;5054773;28;20029;-75
2022/05/06 01:23:23;;;;;;;6.82;4.65;;;;;;;-144.65;100.00;64500.88;5055241;28;20021;-75
2022/05/06 01:25:49;;;;;;;9.45;5.22;;;;;;;-144.65;100.00;64500.88;5054834;28;20028;-75
2022/05/06 01:28:16;;;;;;;8.98;5.13;;;;;;;-144.65;100.00;64500.88;5053848;28;20489;-75
2022/05/06 01:30:47;;;;;;;8.70;5.22;;;;;;;-144.65;100.00;64500.88;5052649;28;20036;-75
2022/05/06 01:33:18;;;;;;;8.55;5.30;;;;;;;-144.65;100.00;64500.88;5053030;28;20103;-75
2022/05/06 01:35:49;;;;;;;8.52;5.30;;;;;;;-144.65;100.00;64500.88;5052864;28;20544;-75
2022/05/06 01:38:32;;;;;;;13.90;5.10;;;;;;;-144.65;100.00;64500.88;5052747;28;20029;-75
2022/05/06 01:41:03;;;;;;;7.22;4.78;;;;;;;-144.65;100.00;64500.88;5052712;28;20052;-75
2022/05/06 01:43:42;;;;;;;7.18;5.28;;;;;;;-144.65;100.00;64500.88;5052566;28;20029;-75
2022/05/06 01:46:10;;;;;;;8.20;5.00;;;;;;;-144.65;100.00;64500.88;5052862;28;20397;-74
2022/05/06 01:48:38;;;;;;;8.32;5.60;;;;;;;-144.65;100.00;64500.88;5055087;28;20393;-75
2022/05/06 01:51:07;;;;;;;9.50;6.28;;;;;;;-144.65;100.00;64500.88;5056701;28;20112;-76
2022/05/06 01:53:32;;;;;;;10.05;6.18;;;;;;;-144.65;100.00;64500.88;5053547;28;20032;-75
2022/05/06 01:55:58;;;;;;;12.32;6.93;;;;;;;-144.65;100.00;64500.88;5052221;28;20029;-75
2022/05/06 01:58:23;;;;;;;8.63;6.28;;;;;;;-144.65;100.00;64500.88;5052251;28;20470;-75
2022/05/06 02:00:49;;;;;;;13.25;7.43;;;;;;;-144.65;100.00;64500.88;5052109;28;20033;-75
2022/05/06 02:06:00;;;;;;;11.75;7.03;;;;;;;-144.65;100.00;64500.88;5050990;28;20397;-75
2022/05/06 02:08:26;;;;;;;11.55;7.05;;;;;;;-144.65;100.00;64500.88;5050776;28;20040;-74
2022/05/06 02:10:52;;;;;;;12.50;6.95;;;;;;;-144.65;100.00;64500.88;5050639;28;20053;-75
2022/05/06 02:13:19;;;;;;;10.70;7.57;;;;;;;-144.65;100.00;64500.88;5052132;28;20021;-75
2022/05/06 02:15:45;;;;;;;12.15;7.82;;;;;;;-144.65;100.00;64500.88;5051829;28;20425;-75
2022/05/06 02:18:10;;;;;;;10.98;7.75;;;;;;;-144.65;100.00;64500.88;5051790;28;20060;-75
2022/05/06 02:20:37;;;;;;;12.23;6.85;;;;;;;-144.65;100.00;64500.88;5051749;28;20052;-75
2022/05/06 02:23:03;;;;;;;13.98;7.15;;;;;;;-144.65;100.00;64500.88;5051906;28;20025;-77
2022/05/06 02:25:28;;;;;;;12.05;7.50;;;;;;;-144.65;100.00;64500.88;5051502;28;20489;-74
2022/05/06 02:27:54;;;;;;;10.63;7.32;;;;;;;-144.65;100.00;64500.88;5050403;28;20036;-75
2022/05/06 02:33:12;;;;;;;12.27;7.82;;;;;;;-144.65;100.00;64500.88;5051718;28;20079;-74
2022/05/06 02:35:37;;;;;;;19.38;8.10;;;;;;;-144.65;100.00;64500.88;5051251;28;20048;-75
2022/05/06 02:38:05;;;;;;;11.05;7.53;;;;;;;-144.65;100.00;64500.88;5051560;28;20211;-75
2022/05/06 02:40:32;;;;;;;12.02;7.97;;;;;;;-144.65;100.00;64500.88;5051555;28;20025;-75
2022/05/06 02:42:58;;;;;;;11.65;8.07;;;;;;;-144.65;100.00;64500.88;5051252;28;20021;-75
2022/05/06 02:45:23;;;;;;;11.07;8.00;;;;;;;-144.65;100.00;64500.88;5051331;28;20131;-75
2022/05/06 02:47:48;;;;;;;10.68;8.13;;;;;;;-144.65;100.00;64500.88;5051458;28;20028;-75
2022/05/06 02:50:14;;;;;;;12.02;8.27;;;;;;;-144.65;100.00;64500.88;5051307;28;20047;-75
2022/05/06 02:52:39;;;;;;;11.70;7.55;;;;;;;-144.65;100.00;64500.88;5052150;28;20024;-75
2022/05/06 02:55:05;;;;;;;12.40;8.45;;;;;;;-144.65;100.00;64500.88;5053242;28;20504;-76
2022/05/06 02:57:30;;;;;;;12.32;7.93;;;;;;;-144.65;100.00;64500.88;5056357;28;20017;-75
2022/05/06 02:59:56;;;;;;;13.35;8.35;;;;;;;-144.65;100.00;64500.88;5056171;28;20033;-75
2022/05/06 03:02:22;;;;;;;10.25;7.82;;;;;;;-144.65;100.00;64500.88;5051711;28;20021;-76
2022/05/06 03:04:48;;;;;;;10.75;7.68;;;;;;;-144.65;100.00;64500.88;5051012;28;20049;-75
2022/05/06 03:07:13;;;;;;;12.35;7.80;;;;;;;-144.65;100.00;64500.88;5050983;28;20040;-75
2022/05/06 03:09:40;;;;;;;13.10;7.93;;;;;;;-144.65;100.00;64500.88;5051189;28;20025;-75
2022/05/06 03:12:06;;;;;;;25.67;8.25;;;;;;;-144.65;100.00;64500.88;5050978;28;20124;-75
2022/05/06 03:14:32;;;;;;;11.45;7.07;;;;;;;-144.65;100.00;64500.88;5050842;28;20021;-75
2022/05/06 03:16:57;;;;;;;10.52;7.03;;;;;;;-144.65;100.00;64500.88;5050750;28;20032;-75
2022/05/06 03:19:22;;;;;;;10.25;7.30;;;;;;;-144.65;100.00;64500.88;5051001;28;20056;-74
2022/05/06 03:21:56;;;;;;;11.35;7.10;;;;;;;-144.65;100.00;64500.88;5051148;28;20029;-75
2022/05/06 03:24:22;;;;;;;9.45;6.72;;;;;;;-144.65;100.00;64500.88;5051118;28;20116;-74
2022/05/06 03:26:48;;;;;;;11.38;6.65;;;;;;;-144.65;100.00;64500.88;5049477;28;20111;-74
2022/05/06 03:29:13;;;;;;;11.40;7.18;;;;;;;-144.65;100.00;64500.88;5051010;28;20029;-74
2022/05/06 03:31:39;;;;;;;11.95;6.60;;;;;;;-144.65;100.00;64500.88;5050730;28;20492;-75
2022/05/06 03:34:05;;;;;;;10.43;6.97;;;;;;;-144.65;100.00;64500.88;5053137;28;20044;-75
2022/05/06 03:36:30;;;;;;;10.13;7.30;;;;;;;-144.65;100.00;64500.88;5053087;28;20028;-76
2022/05/06 03:38:56;;;;;;;11.85;6.95;;;;;;;-144.65;100.00;64500.88;5054332;28;20017;-76
2022/05/06 03:41:22;;;;;;;11.25;7.10;;;;;;;-144.65;100.00;64500.88;5050664;28;20102;-76
2022/05/06 03:43:47;;;;;;;11.23;6.97;;;;;;;-144.65;100.00;64500.88;5049270;28;20041;-75
2022/05/06 03:46:13;;;;;;;9.82;6.85;;;;;;;-144.65;100.00;64500.88;5050414;28;20025;-75
2022/05/06 03:48:38;;;;;;;10.20;6.50;;;;;;;-144.65;100.00;64500.88;5044468;28;20021;-75
2022/05/06 03:51:23;;;;;;;11.52;7.20;;;;;;;-144.65;100.00;64500.88;5063290;28;20029;-74
2022/05/06 03:53:52;;;;;;;11.30;7.15;;;;;;;-144.65;100.00;64500.88;5067860;28;20043;-75
2022/05/06 03:56:19;;;;;;;11.80;6.68;;;;;;;-144.65;100.00;64500.88;5050234;28;20051;-75
2022/05/06 03:58:45;;;;;;;11.00;7.95;;;;;;;-144.65;100.00;64500.88;5050072;28;20029;-74
2022/05/06 04:01:11;;;;;;;11.00;7.45;;;;;;;-144.65;100.00;64500.88;5050332;28;20108;-74
2022/05/06 04:03:38;;;;;;;11.88;7.00;;;;;;;-144.65;100.00;64500.88;5048527;28;20229;-74
2022/05/06 04:06:04;;;;;;;10.48;7.03;;;;;;;-144.65;100.00;64500.88;5035365;28;20036;-75
2022/05/06 04:08:30;;;;;;;10.20;7.47;;;;;;;-144.65;100.00;64500.88;5070125;28;20104;-75
2022/05/06 04:10:55;;;;;;;11.65;7.93;;;;;;;-144.65;100.00;64500.88;5070072;28;20072;-76
2022/05/06 04:13:21;;;;;;;13.05;7.72;;;;;;;-144.65;100.00;64500.88;5068867;28;20024;-74
2022/05/06 04:15:47;;;;;;;12.60;7.82;;;;;;;-144.65;100.00;64500.88;5070030;28;20032;-74
2022/05/06 04:18:13;;;;;;;11.95;7.32;;;;;;;-144.65;100.00;64500.88;5070085;28;20024;-74
2022/05/06 04:23:29;;;;;;;10.55;7.93;;;;;;;-144.65;100.00;64500.88;5070134;28;20035;-74
2022/05/06 04:25:58;;;;;;;10.32;7.50;;;;;;;-144.65;100.00;64500.88;5070325;28;20564;-75
2022/05/06 04:28:30;;;;;;;10.70;7.22;;;;;;;-144.65;100.00;64500.88;5070002;28;20393;-75
2022/05/06 04:30:55;;;;;;;10.85;8.40;;;;;;;-144.65;100.00;64500.88;5069959;28;20032;-75
2022/05/06 04:33:24;;;;;;;12.65;7.95;;;;;;;-144.65;100.00;64500.88;5069488;28;20082;-74
2022/05/06 04:35:51;;;;;;;11.25;7.82;;;;;;;-144.65;100.00;64500.88;5069970;28;20086;-74
2022/05/06 04:38:17;;;;;;;10.48;7.90;;;;;;;-144.65;100.00;64500.88;5069797;28;20565;-74
2022/05/06 04:40:43;;;;;;;17.23;10.68;;;;;;;-144.65;100.00;64500.88;5069602;28;20047;-75
2022/05/06 04:43:09;;;;;;;18.45;11.57;;;;;;;-144.65;100.00;64500.88;5061907;28;20029;-74
2022/05/06 04:45:38;;;;;;;15.88;11.02;;;;;;;-144.65;100.00;64500.88;5048282;28;20029;-74
2022/05/06 04:48:05;;;;;;;16.80;11.30;;;;;;;-144.65;100.00;64500.88;5050889;28;20037;-74
2022/05/06 04:50:32;;;;;;;19.67;11.35;;;;;;;-144.65;100.00;64500.88;5052255;28;20215;-74
2022/05/06 04:52:58;;;;;;;14.55;9.48;;;;;;;-144.65;100.00;64500.88;5052791;28;20029;-75
2022/05/06 04:55:23;;;;;;;18.65;10.38;;;;;;;-144.65;100.00;64500.88;5052919;28;20553;-74
2022/05/06 04:57:49;;;;;;;15.02;10.00;;;;;;;-144.65;100.00;64500.88;5053284;28;20104;-75
2022/05/06 05:00:14;;;;;;;14.27;9.35;;;;;;;-144.65;100.00;64500.88;5053601;28;20063;-73
2022/05/06 05:02:40;;;;;;;12.55;9.07;;;;;;;-144.65;100.00;64500.88;5052734;28;20493;-75
2022/05/06 05:05:06;;;;;;;18.63;10.30;;;;;;;-144.65;100.00;64500.88;5049686;28;20029;-75
2022/05/06 05:07:31;;;;;;;16.73;8.82;;;;;;;-144.65;100.00;64500.88;5049099;28;20091;-74
2022/05/06 05:09:57;;;;;;;14.93;9.30;;;;;;;-144.65;100.00;64500.88;5052834;28;20029;-75
2022/05/06 05:12:24;;;;;;;16.73;10.38;;;;;;;-144.65;100.00;64500.88;5053505;28;20895;-75
2022/05/06 05:14:51;;;;;;;13.43;10.32;;;;;;;-144.65;100.00;64500.88;5049301;28;20075;-74
2022/05/06 05:17:17;;;;;;;17.45;9.95;;;;;;;-144.65;100.00;64500.88;5052817;28;20028;-74
2022/05/06 05:19:43;;;;;;;12.25;8.95;;;;;;;-144.65;100.00;64500.88;5052616;28;20036;-74
2022/05/06 05:22:09;;;;;;;15.45;9.93;;;;;;;-144.65;100.00;64500.88;5051803;28;20057;-74
2022/05/06 05:24:34;;;;;;;14.80;10.07;;;;;;;-144.65;100.00;64500.88;5051764;28;20032;-73
2022/05/06 05:27:00;;;;;;;14.35;9.90;;;;;;;-144.65;100.00;64500.88;5050147;28;20021;-73
2022/05/06 05:29:25;;;;;;;18.52;10.80;;;;;;;-144.65;100.00;64500.88;5051214;28;20448;-74
2022/05/06 05:31:52;;;;;;;13.10;9.60;;;;;;;-144.65;100.00;64500.88;5050962;28;20504;-74
2022/05/06 05:34:17;;;;;;;19.42;10.57;;;;;;;-144.65;100.00;64500.88;5051067;28;20036;-74
2022/05/06 05:36:43;;;;;;;13.10;9.57;;;;;;;-144.65;100.00;64500.88;5049838;28;20025;-74
2022/05/06 05:39:08;;;;;;;15.90;9.57;;;;;;;-144.65;100.00;64500.88;5049925;28;20482;-74
2022/05/06 05:41:34;;;;;;;15.52;9.82;;;;;;;-144.65;100.00;64500.88;5050656;28;20021;-73
2022/05/06 05:49:27;;;;;;;14.98;9.68;;;;;;;-144.65;100.00;64500.88;5051976;28;20912;-73
2022/05/06 05:51:53;;;;;;;13.77;9.45;;;;;;;-144.65;100.00;64500.88;5052165;28;20063;-73
2022/05/06 05:54:18;;;;;;;12.85;9.45;;;;;;;-144.65;100.00;64500.88;5051536;28;20733;-74
2022/05/06 05:56:43;;;;;;;12.55;9.38;;;;;;;-144.65;100.00;64500.88;5051463;28;20017;-74
2022/05/06 05:59:09;;;;;;;15.75;10.23;;;;;;;-144.65;100.00;64500.88;5051380;28;20144;-74
2022/05/06 06:01:34;;;;;;;17.98;10.10;;;;;;;-144.65;100.00;64500.88;5051661;28;20037;-74
2022/05/06 06:04:00;;;;;;;14.15;10.57;;;;;;;-144.65;100.00;64500.88;5066805;28;20131;-73
2022/05/06 06:06:26;;;;;;;13.20;9.07;;;;;;;-144.65;100.00;64500.88;5070519;28;20028;-73
2022/05/06 06:08:52;;;;;;;13.35;9.88;;;;;;;-144.65;100.00;64500.88;5070109;28;20009;-74
2022/05/06 06:11:18;;;;;;;15.70;9.40;;;;;;;-144.65;100.00;64500.88;5071503;28;20054;-74
2022/05/06 06:13:44;;;;;;;13.27;9.50;;;;;;;-144.65;100.00;64500.88;5071470;28;20048;-75
2022/05/06 06:16:09;;;;;;;14.02;9.18;;;;;;;-144.65;100.00;64500.88;5071491;28;20022;-75
2022/05/06 06:18:34;;;;;;;14.25;10.32;;;;;;;-144.65;100.00;64500.88;5071615;28;20070;-75
2022/05/06 06:21:00;;;;;;;11.77;8.85;;;;;;;-144.65;100.00;64500.88;5071665;28;20381;-75
2022/05/06 06:23:25;;;;;;;14.50;10.23;;;;;;;-144.65;100.00;64500.88;5071273;28;20032;-75
2022/05/06 06:25:50;;;;;;;26.83;10.40;;;;;;;-144.65;100.00;64500.88;5071509;28;20040;-75
2022/05/06 06:28:16;;;;;;;15.55;10.70;;;;;;;-144.65;100.00;64500.88;5071343;28;20017;-75
2022/05/06 06:30:42;;;;;;;13.18;9.38;;;;;;;-144.65;100.00;64500.88;5071219;28;20047;-75
2022/05/06 06:33:08;;;;;;;13.82;10.05;;;;;;;-144.65;100.00;64500.88;5071129;28;20394;-75
2022/05/06 06:35:33;;;;;;;13.40;9.70;;;;;;;-144.65;100.00;64500.88;5071441;28;20080;-75
2022/05/06 06:38:00;;;;;;;14.75;10.45;;;;;;;-144.65;100.00;64500.88;5071583;28;20025;-76
2022/05/06 06:40:25;;;;;;;14.60;9.90;;;;;;;-144.65;100.00;64500.88;5071123;28;20051;-75
2022/05/06 06:42:50;;;;;;;14.27;9.35;;;;;;;-144.65;100.00;64500.88;5069968;28;20469;-73
2022/05/06 06:45:16;;;;;;;14.25;9.55;;;;;;;-144.65;100.00;64500.88;5071345;28;20134;-75
2022/05/06 06:47:41;;;;;;;16.63;10.05;;;;;;;-144.65;100.00;64500.88;5071313;28;20029;-74
2022/05/06 06:50:07;;;;;;;11.77;9.23;;;;;;;-144.65;100.00;64500.88;5071260;28;20477;-75
2022/05/06 06:52:33;;;;;;;13.10;9.27;;;;;;;-144.65;100.00;64500.88;5070043;28;20039;-75
2022/05/06 06:54:59;;;;;;;13.48;9.60;;;;;;;-144.65;100.00;64500.88;5071444;28;20028;-74
2022/05/06 06:57:26;;;;;;;12.20;9.10;;;;;;;-144.65;100.00;64500.88;5071539;28;20027;-75
2022/05/06 06:59:52;;;;;;;11.10;8.38;;;;;;;-144.65;100.00;64500.88;5071201;28;20036;-74
2022/05/06 07:02:17;;;;;;;15.50;9.88;;;;;;;-144.65;100.00;64500.88;5071760;28;20567;-75
2022/05/06 07:04:42;;;;;;;14.80;9.68;;;;;;;-144.65;100.00;64500.88;5070826;28;20044;-75
2022/05/06 07:12:35;;;;;;;18.42;10.18;;;;;;;-144.65;100.00;64500.88;5070859;28;20035;-75
2022/05/06 07:15:02;;;;;;;14.30;10.25;;;;;;;-144.65;100.00;64500.88;5070885;28;20621;-75
2022/05/06 07:17:28;;;;;;;14.30;9.55;;;;;;;-144.65;100.00;64500.88;5070041;28;20028;-75
2022/05/06 07:19:54;;;;;;;13.93;9.27;;;;;;;-144.65;100.00;64500.88;5075148;28;20054;-75
2022/05/06 07:22:19;;;;;;;12.95;9.50;;;;;;;-144.65;100.00;64500.88;5076491;28;20595;-75
2022/05/06 07:24:44;;;;;;;20.23;9.55;;;;;;;-144.65;100.00;64500.88;5071682;28;20024;-75
2022/05/06 07:27:10;;;;;;;13.55;9.38;;;;;;;-144.65;100.00;64500.88;5071033;28;20466;-75
2022/05/06 07:29:35;;;;;;;13.73;9.55;;;;;;;-144.65;100.00;64500.88;5071071;28;20035;-75
2022/05/06 07:32:01;;;;;;;12.55;8.93;;;;;;;-144.65;100.00;64500.88;5070599;28;20056;-75
2022/05/06 07:34:26;;;;;;;12.80;9.20;;;;;;;-144.65;100.00;64500.88;5070402;28;20037;-75
2022/05/06 07:36:52;;;;;;;14.05;9.10;;;;;;;-144.65;100.00;64500.88;5070663;28;20434;-74
2022/05/06 07:39:17;;;;;;;12.45;9.00;;;;;;;-144.65;100.00;64500.88;5070669;28;20500;-75
2022/05/06 07:41:43;;;;;;;15.77;8.95;;;;;;;-144.65;100.00;64500.88;5070412;28;20024;-75
2022/05/06 07:44:09;;;;;;;10.20;8.55;;;;;;;-144.65;100.00;64500.88;5070602;28;20113;-75
2022/05/06 07:46:35;;;;;;;10.90;8.07;;;;;;;-144.65;100.00;64500.88;5070788;28;20083;-74
2022/05/06 07:49:02;;;;;;;12.32;9.23;;;;;;;-144.65;100.00;64500.88;5070506;28;20082;-75
2022/05/06 07:51:28;;;;;;;14.30;9.10;;;;;;;-144.65;100.00;64500.88;5070628;28;20071;-75
2022/05/06 07:53:55;;;;;;;12.93;10.00;;;;;;;-144.65;100.00;64500.88;5069521;28;20024;-75
2022/05/06 07:56:25;;;;;;;17.17;10.02;;;;;;;-144.65;100.00;64500.88;5070742;28;20492;-75
2022/05/06 07:58:51;;;;;;;13.98;9.57;;;;;;;-144.65;100.00;64500.88;5071072;28;20536;-75
2022/05/06 08:01:18;;;;;;;14.13;9.90;;;;;;;-144.65;100.00;64500.88;5070174;28;20059;-75
2022/05/06 08:06:27;;;;;;;14.27;10.88;;;;;;;-144.65;100.00;64500.88;5070420;28;20555;-75
2022/05/06 08:08:52;;;;;;;13.15;10.00;;;;;;;-144.65;100.00;64500.88;5070561;28;20032;-75
2022/05/06 08:11:18;;;;;;;16.65;11.38;;;;;;;-144.65;100.00;64500.88;5070360;28;20035;-74
2022/05/06 08:13:49;;;;;;;15.88;11.40;;;;;;;-144.65;100.00;64500.88;5070291;28;20023;-74
2022/05/06 08:16:14;;;;;;;16.90;12.27;;;;;;;-144.65;100.00;64500.88;5070242;28;20062;-75
2022/05/06 08:18:39;;;;;;;16.55;12.15;;;;;;;-144.65;100.00;64500.88;5070275;28;20075;-75
2022/05/06 08:21:06;;;;;;;17.63;12.23;;;;;;;-144.65;100.00;64500.88;5069273;28;20103;-74
2022/05/06 08:23:32;;;;;;;20.90;11.50;;;;;;;-144.65;100.00;64500.88;5073822;28;20017;-75
2022/05/06 08:25:57;;;;;;;21.40;11.10;;;;;;;-144.65;100.00;64500.88;5074167;28;20394;-75
2022/05/06 08:28:23;;;;;;;18.65;12.00;;;;;;;-144.65;100.00;64500.88;5074611;28;20079;-75
2022/05/06 08:30:49;;;;;;;16.58;11.18;;;;;;;-144.65;100.00;64500.88;5073996;28;20038;-75
2022/05/06 08:33:17;;;;;;;17.13;11.85;;;;;;;-144.65;100.00;64500.88;5074041;28;20028;-75
2022/05/06 08:35:43;;;;;;;16.17;11.50;;;;;;;-144.65;100.00;64500.88;5073717;28;20472;-75
2022/05/06 08:38:09;;;;;;;17.23;12.30;;;;;;;-144.65;100.00;64500.88;5074113;28;20103;-74
2022/05/06 08:40:38;;;;;;;14.82;11.23;;;;;;;-144.65;100.00;64500.88;5073882;28;20045;-75
2022/05/06 08:43:05;;;;;;;20.05;12.13;;;;;;;-144.65;100.00;64500.88;5072301;28;20025;-75
2022/05/06 08:51:02;;;;;;;13.52;10.15;;;;;;;-144.65;100.00;64500.88;5073700;28;20039;-75
2022/05/06 08:53:32;;;;;;;15.25;10.38;;;;;;;-144.65;100.00;64500.88;5073385;28;20420;-75
2022/05/06 08:55:59;;;;;;;13.05;9.50;;;;;;;-144.65;100.00;64500.88;5074331;28;20027;-75
2022/05/06 08:58:27;;;;;;;13.82;10.00;;;;;;;-144.65;100.00;64500.88;5076803;28;20480;-76
2022/05/06 09:01:05;;;;;;;12.32;9.55;;;;;;;-144.65;100.00;64500.88;5076268;28;20074;-75
2022/05/06 09:03:30;;;;;;;13.15;8.77;;;;;;;-144.65;100.00;64500.88;5054782;28;20073;-75
2022/05/06 09:06:00;;;;;;;11.43;8.68;;;;;;;-144.65;100.00;64500.88;5033641;28;20103;-75
2022/05/06 09:08:36;;;;;;;11.93;8.90;;;;;;;-144.65;100.00;64500.88;5033278;28;20037;-75
2022/05/06 09:11:09;;;;;;;12.45;8.15;;;;;;;-144.65;100.00;64500.88;5033145;28;20029;-74
2022/05/06 09:13:36;;;;;;;10.55;7.88;;;;;;;-144.65;100.00;64500.88;5033505;28;20531;-75
2022/05/06 09:16:40;;;;;;;13.43;7.63;;;;;;;-144.65;100.00;64500.88;5033149;28;20025;-74
2022/05/06 09:19:25;;;;;;;11.43;8.07;;;;;;;-144.65;100.00;64500.88;5021862;28;20445;-75
2022/05/06 09:22:20;;;;;;;12.68;7.75;;;;;;;-144.65;100.00;64500.88;5032985;28;20033;-75
2022/05/06 09:24:52;;;;;;;16.35;9.23;;;;;;;-144.65;100.00;64500.88;5027904;28;20041;-75
2022/05/06 09:27:19;;;;;;;14.85;8.93;;;;;;;-144.65;100.00;64500.88;5047857;28;20028;-75
2022/05/06 09:29:47;;;;;;;15.77;10.40;;;;;;;-144.65;100.00;64500.88;5035123;28;20029;-75
2022/05/06 09:32:20;;;;;;;12.25;8.38;;;;;;;-144.65;100.00;64500.88;5040498;28;20032;-75
2022/05/06 09:34:51;;;;;;;14.00;8.77;;;;;;;-144.65;100.00;64500.88;5034892;28;20044;-75
2022/05/06 09:37:40;;;;;;;13.32;8.45;;;;;;;-144.65;100.00;64500.88;5032948;28;20036;-75
2022/05/06 09:40:11;;;;;;;11.90;9.02;;;;;;;-144.65;100.00;64500.88;5032783;28;20025;-75
2022/05/06 09:42:44;;;;;;;12.82;7.63;;;;;;;-144.65;100.00;64500.88;5032734;28;20033;-74
2022/05/06 09:45:12;;;;;;;12.63;8.82;;;;;;;-144.65;100.00;64500.88;5032850;28;20035;-75
2022/05/06 09:47:40;;;;;;;10.48;8.27;;;;;;;-144.65;100.00;64500.88;5032496;28;20155;-75
2022/05/06 09:50:07;;;;;;;12.82;8.32;;;;;;;-144.65;100.00;64500.88;5032277;28;20033;-74
2022/05/06 09:52:34;;;;;;;11.48;8.82;;;;;;;-144.65;100.00;64500.88;5032357;28;20470;-74
2022/05/06 09:55:00;;;;;;;10.45;8.45;;;;;;;-144.65;100.00;64500.88;5032279;28;20064;-75
2022/05/06 09:57:26;;;;;;;12.30;8.20;;;;;;;-144.65;100.00;64500.88;5032368;28;20432;-75
2022/05/06 09:59:51;;;;;;;10.02;7.68;;;;;;;-144.65;100.00;64500.88;5032659;28;20063;-75
2022/05/06 10:02:18;;;;;;;9.73;7.43;;;;;;;-144.65;100.00;64500.88;5032405;28;20064;-74
2022/05/06 10:04:44;;;;;;;11.10;8.02;;;;;;;-144.65;100.00;64500.88;5031977;28;20049;-75
2022/05/06 10:07:15;;;;;;;10.70;7.93;;;;;;;-144.65;100.00;64500.88;5032214;28;20041;-75
2022/05/06 10:09:46;;;;;;;9.02;7.18;;;;;;;-144.65;100.00;64500.88;5032337;28;20376;-75
2022/05/06 10:12:15;;;;;;;9.75;7.63;;;;;;;-144.65;100.00;64500.88;5032314;28;20112;-75
2022/05/06 10:14:41;;;;;;;12.20;8.05;;;;;;;-144.65;100.00;64500.88;5032253;28;20033;-74
2022/05/06 10:17:09;;;;;;;12.20;8.23;;;;;;;-144.65;100.00;64500.88;5032103;28;20061;-75
2022/05/06 10:19:37;;;;;;;11.32;8.07;;;;;;;-144.65;100.00;64500.88;5047672;28;20033;-75
2022/05/06 10:22:03;;;;;;;10.98;7.15;;;;;;;-144.65;100.00;64500.88;5031915;28;20474;-75
2022/05/06 10:24:43;;;;;;;11.50;7.80;;;;;;;-144.65;100.00;64500.88;5031788;28;20037;-75
2022/05/06 10:27:22;;;;;;;11.57;7.75;;;;;;;-144.65;100.00;64500.88;5032313;28;20079;-75
2022/05/06 10:32:51;;;;;;;13.45;7.78;;;;;;;-144.65;100.00;64500.88;5032205;28;20516;-75
2022/05/06 10:35:17;;;;;;;10.87;7.83;;;;;;;-144.65;100.00;64500.88;5033422;28;20047;-74
2022/05/06 10:37:45;;;;;;;15.38;8.85;;;;;;;-144.65;100.00;64500.88;5032899;28;20298;-75
2022/05/06 10:40:25;;;;;;;8.68;6.57;;;;;;;-144.65;100.00;64500.88;5033994;28;20486;-76
2022/05/06 10:42:52;;;;;;;10.35;7.20;;;;;;;-144.65;100.00;64500.88;5036249;28;20068;-74
2022/05/06 10:45:33;;;;;;;9.77;7.07;;;;;;;-144.65;100.00;64500.88;5034464;28;20034;-74
2022/05/06 10:47:59;;;;;;;8.75;6.50;;;;;;;-144.65;100.00;64500.88;5036562;28;20040;-74
2022/05/06 10:50:29;;;;;;;9.48;7.20;;;;;;;-144.65;100.00;64500.88;5035964;28;20029;-76
2022/05/06 10:52:57;;;;;;;10.27;6.63;;;;;;;-144.65;100.00;64500.88;5034458;28;20039;-73
2022/05/06 10:55:24;;;;;;;10.18;6.05;;;;;;;-144.65;100.00;64500.88;5031966;28;20057;-74
2022/05/06 10:57:56;;;;;;;10.15;6.93;;;;;;;-144.65;100.00;64500.88;5030382;28;20112;-75
2022/05/06 11:00:26;;;;;;;9.43;6.00;;;;;;;-144.65;100.00;64500.88;5032048;28;20458;-73
2022/05/06 11:02:52;;;;;;;7.45;6.00;;;;;;;-144.65;100.00;64500.88;5031206;28;20056;-73
2022/05/06 11:05:24;;;;;;;10.63;6.88;;;;;;;-144.65;100.00;64500.88;5031506;28;20051;-74
2022/05/06 11:07:54;;;;;;;9.15;6.28;;;;;;;-144.65;100.00;64500.88;5031204;28;20535;-74
2022/05/06 11:10:22;;;;;;;10.60;6.25;;;;;;;-144.65;100.00;64500.88;5031042;28;20025;-74
2022/05/06 11:12:49;;;;;;;9.32;6.20;;;;;;;-144.65;100.00;64500.88;5031109;28;20091;-73
2022/05/06 11:15:33;;;;;;;8.02;6.10;;;;;;;-144.65;100.00;64500.88;5031365;28;20032;-74
2022/05/06 11:18:00;;;;;;;9.40;5.90;;;;;;;-144.65;100.00;64500.88;5030933;28;20083;-75
2022/05/06 11:20:35;;;;;;;11.57;6.65;;;;;;;-144.65;100.00;64500.88;5030858;28;20065;-74
2022/05/06 11:23:08;;;;;;;7.83;5.97;;;;;;;-144.65;100.00;64500.88;5031426;28;20025;-74
2022/05/06 11:25:41;;;;;;;12.23;6.80;;;;;;;-144.65;100.00;64500.88;5031088;28;20285;-75
2022/05/06 11:28:18;;;;;;;10.48;7.65;;;;;;;-144.65;100.00;64500.88;5031176;28;20406;-74
2022/05/06 11:30:45;;;;;;;9.95;6.55;;;;;;;-144.65;100.00;64500.88;5030830;28;20037;-75
2022/05/06 11:33:20;;;;;;;11.73;7.25;;;;;;;-144.65;100.00;64500.88;5030973;28;20040;-74